sensor_id;sensor_type;location;lat;lon;timestamp;P1;P2;P0
55518;PMS5003;41724;51.176;-0.708;2022-10-19T00:02:15;5;2;
55518;PMS5003;41724;51.176;-0.708;2022-10-19T00:04:42;4;3;
55518;PMS5003;41724;51.176;-0.708;2022-10-19T00:07:09;1;1;
55518;PMS5003;41724;51.176;-0.708;2022-10-19T00:09:36;2;2;
55518;PMS5003;41724;51.176;-0.708;2022-10-19T00:12:04;6;3;
55518;PMS5003;41724;51.176;-0.708;2022-10-19T00:14:31;1;1;
55518;PMS5003;41724;51.176;-0.708;2022-10-19T00:16:58;2;2;
55518;PMS5003;41724;51.176;-0.708;2022-10-19T00:19:26;3;3;
55518;PMS5003;41724;51.176;-0.708;2022-10-19T00:21:54;2;2;
55518;PMS5003;41724;51.176;-0.708;2022-10-19T00:24:21;2;2;
55518;PMS5003;41724;51.176;-0.708;2022-10-19T00:26:48;4;3;
55518;PMS5003;41724;51.176;-0.708;2022-10-19T00:29:16;5;2;
55518;PMS5003;41724;51.176;-0.708;2022-10-19T00:31:43;2;2;
55518;PMS5003;41724;51.176;-0.708;2022-10-19T00:34:10;4;4;
55518;PMS5003;41724;51.176;-0.708;2022-10-19T00:36:38;5;4;
55518;PMS5003;41724;51.176;-0.708;2022-10-19T00:39:08;3;3;
55518;PMS5003;41724;51.176;-0.708;2022-10-19T00:41:39;3;2;
55518;PMS5003;41724;51.176;-0.708;2022-10-19T00:44:56;3;2;
55518;PMS5003;41724;51.176;-0.708;2022-10-19T00:47:25;2;2;
55518;PMS5003;41724;51.176;-0.708;2022-10-19T00:49:53;3;1;
55518;PMS5003;41724;51.176;-0.708;2022-10-19T00:52:22;2;2;
55518;PMS5003;41724;51.176;-0.708;2022-10-19T00:54:51;1;1;
55518;PMS5003;41724;51.176;-0.708;2022-10-19T00:57:20;1;0;
55518;PMS5003;41724;51.176;-0.708;2022-10-19T00:59:49;4;2;
55518;PMS5003;41724;51.176;-0.708;2022-10-19T01:02:17;2;2;
55518;PMS5003;41724;51.176;-0.708;2022-10-19T01:04:46;2;2;
55518;PMS5003;41724;51.176;-0.708;2022-10-19T01:07:15;4;2;
55518;PMS5003;41724;51.176;-0.708;2022-10-19T01:09:43;1;1;
55518;PMS5003;41724;51.176;-0.708;2022-10-19T01:12:13;3;3;
55518;PMS5003;41724;51.176;-0.708;2022-10-19T01:14:59;4;3;
55518;PMS5003;41724;51.176;-0.708;2022-10-19T01:17:38;7;1;
55518;PMS5003;41724;51.176;-0.708;2022-10-19T01:20:21;3;3;
55518;PMS5003;41724;51.176;-0.708;2022-10-19T01:23:05;3;2;
55518;PMS5003;41724;51.176;-0.708;2022-10-19T01:25:52;3;3;
55518;PMS5003;41724;51.176;-0.708;2022-10-19T01:28:31;3;3;
55518;PMS5003;41724;51.176;-0.708;2022-10-19T01:31:14;4;3;
55518;PMS5003;41724;51.176;-0.708;2022-10-19T01:33:51;4;3;
55518;PMS5003;41724;51.176;-0.708;2022-10-19T01:36:29;4;4;
55518;PMS5003;41724;51.176;-0.708;2022-10-19T01:39:05;4;2;
55518;PMS5003;41724;51.176;-0.708;2022-10-19T01:41:41;2;2;
55518;PMS5003;41724;51.176;-0.708;2022-10-19T01:44:15;2;2;
55518;PMS5003;41724;51.176;-0.708;2022-10-19T01:46:49;3;2;
55518;PMS5003;41724;51.176;-0.708;2022-10-19T01:49:22;3;3;
55518;PMS5003;41724;51.176;-0.708;2022-10-19T01:51:56;2;2;
55518;PMS5003;41724;51.176;-0.708;2022-10-19T01:54:27;1;1;
55518;PMS5003;41724;51.176;-0.708;2022-10-19T01:56:59;2;2;
55518;PMS5003;41724;51.176;-0.708;2022-10-19T01:59:30;2;2;
55518;PMS5003;41724;51.176;-0.708;2022-10-19T02:01:59;5;2;
55518;PMS5003;41724;51.176;-0.708;2022-10-19T02:04:29;2;2;
55518;PMS5003;41724;51.176;-0.708;2022-10-19T02:06:58;2;2;
55518;PMS5003;41724;51.176;-0.708;2022-10-19T02:09:27;2;2;
55518;PMS5003;41724;51.176;-0.708;2022-10-19T02:11:56;3;2;
55518;PMS5003;41724;51.176;-0.708;2022-10-19T02:14:29;2;2;
55518;PMS5003;41724;51.176;-0.708;2022-10-19T02:17:04;4;3;
55518;PMS5003;41724;51.176;-0.708;2022-10-19T02:19:34;3;1;
55518;PMS5003;41724;51.176;-0.708;2022-10-19T02:22:02;2;2;
55518;PMS5003;41724;51.176;-0.708;2022-10-19T02:24:29;3;2;
55518;PMS5003;41724;51.176;-0.708;2022-10-19T02:26:58;1;1;
55518;PMS5003;41724;51.176;-0.708;2022-10-19T02:29:27;3;3;
55518;PMS5003;41724;51.176;-0.708;2022-10-19T02:31:54;3;3;
55518;PMS5003;41724;51.176;-0.708;2022-10-19T02:34:21;1;0;
55518;PMS5003;41724;51.176;-0.708;2022-10-19T02:36:49;2;2;
55518;PMS5003;41724;51.176;-0.708;2022-10-19T02:39:16;8;3;
55518;PMS5003;41724;51.176;-0.708;2022-10-19T02:41:44;3;0;
55518;PMS5003;41724;51.176;-0.708;2022-10-19T02:44:17;1;1;
55518;PMS5003;41724;51.176;-0.708;2022-10-19T02:46:49;2;1;
55518;PMS5003;41724;51.176;-0.708;2022-10-19T02:49:19;3;2;
55518;PMS5003;41724;51.176;-0.708;2022-10-19T02:51:56;1;1;
55518;PMS5003;41724;51.176;-0.708;2022-10-19T02:54:25;1;1;
55518;PMS5003;41724;51.176;-0.708;2022-10-19T02:56:53;4;4;
55518;PMS5003;41724;51.176;-0.708;2022-10-19T02:59:20;2;2;
55518;PMS5003;41724;51.176;-0.708;2022-10-19T03:01:47;1;1;
55518;PMS5003;41724;51.176;-0.708;2022-10-19T03:04:15;2;2;
55518;PMS5003;41724;51.176;-0.708;2022-10-19T03:06:42;2;2;
55518;PMS5003;41724;51.176;-0.708;2022-10-19T03:09:09;0;0;
55518;PMS5003;41724;51.176;-0.708;2022-10-19T03:11:37;4;2;
55518;PMS5003;41724;51.176;-0.708;2022-10-19T03:14:04;1;1;
55518;PMS5003;41724;51.176;-0.708;2022-10-19T03:16:31;2;2;
55518;PMS5003;41724;51.176;-0.708;2022-10-19T03:18:58;3;3;
55518;PMS5003;41724;51.176;-0.708;2022-10-19T03:21:26;1;1;
55518;PMS5003;41724;51.176;-0.708;2022-10-19T03:23:53;2;2;
55518;PMS5003;41724;51.176;-0.708;2022-10-19T03:26:20;2;2;
55518;PMS5003;41724;51.176;-0.708;2022-10-19T03:28:48;3;2;
55518;PMS5003;41724;51.176;-0.708;2022-10-19T03:31:15;4;2;
55518;PMS5003;41724;51.176;-0.708;2022-10-19T03:33:42;1;1;
55518;PMS5003;41724;51.176;-0.708;2022-10-19T03:36:14;1;1;
55518;PMS5003;41724;51.176;-0.708;2022-10-19T03:38:44;1;1;
55518;PMS5003;41724;51.176;-0.708;2022-10-19T03:41:11;3;3;
55518;PMS5003;41724;51.176;-0.708;2022-10-19T03:43:38;2;2;
55518;PMS5003;41724;51.176;-0.708;2022-10-19T03:46:06;3;2;
55518;PMS5003;41724;51.176;-0.708;2022-10-19T03:48:33;2;2;
55518;PMS5003;41724;51.176;-0.708;2022-10-19T03:51:02;1;1;
55518;PMS5003;41724;51.176;-0.708;2022-10-19T03:53:31;4;4;
55518;PMS5003;41724;51.176;-0.708;2022-10-19T03:56:00;3;3;
55518;PMS5003;41724;51.176;-0.708;2022-10-19T03:58:28;5;3;
55518;PMS5003;41724;51.176;-0.708;2022-10-19T04:00:56;2;2;
55518;PMS5003;41724;51.176;-0.708;2022-10-19T04:03:23;3;2;
55518;PMS5003;41724;51.176;-0.708;2022-10-19T04:05:51;4;3;
55518;PMS5003;41724;51.176;-0.708;2022-10-19T04:08:18;8;5;
55518;PMS5003;41724;51.176;-0.708;2022-10-19T04:10:45;2;2;
55518;PMS5003;41724;51.176;-0.708;2022-10-19T04:13:12;3;3;
55518;PMS5003;41724;51.176;-0.708;2022-10-19T04:15:40;2;2;
55518;PMS5003;41724;51.176;-0.708;2022-10-19T04:18:07;5;4;
55518;PMS5003;41724;51.176;-0.708;2022-10-19T04:20:34;6;3;
55518;PMS5003;41724;51.176;-0.708;2022-10-19T04:23:02;2;2;
55518;PMS5003;41724;51.176;-0.708;2022-10-19T04:25:29;4;4;
55518;PMS5003;41724;51.176;-0.708;2022-10-19T04:27:56;4;2;
55518;PMS5003;41724;51.176;-0.708;2022-10-19T04:30:23;7;5;
55518;PMS5003;41724;51.176;-0.708;2022-10-19T04:32:49;4;4;
55518;PMS5003;41724;51.176;-0.708;2022-10-19T04:35:17;8;6;
55518;PMS5003;41724;51.176;-0.708;2022-10-19T04:37:44;3;3;
55518;PMS5003;41724;51.176;-0.708;2022-10-19T04:40:11;9;6;
55518;PMS5003;41724;51.176;-0.708;2022-10-19T04:42:39;6;4;
55518;PMS5003;41724;51.176;-0.708;2022-10-19T04:45:06;6;5;
55518;PMS5003;41724;51.176;-0.708;2022-10-19T04:47:34;6;4;
55518;PMS5003;41724;51.176;-0.708;2022-10-19T04:50:01;4;4;
55518;PMS5003;41724;51.176;-0.708;2022-10-19T04:52:29;8;6;
55518;PMS5003;41724;51.176;-0.708;2022-10-19T04:54:56;5;5;
55518;PMS5003;41724;51.176;-0.708;2022-10-19T04:57:23;8;6;
55518;PMS5003;41724;51.176;-0.708;2022-10-19T04:59:50;5;5;
55518;PMS5003;41724;51.176;-0.708;2022-10-19T05:02:18;5;5;
55518;PMS5003;41724;51.176;-0.708;2022-10-19T05:04:46;5;5;
55518;PMS5003;41724;51.176;-0.708;2022-10-19T05:07:14;8;6;
55518;PMS5003;41724;51.176;-0.708;2022-10-19T05:09:41;5;4;
55518;PMS5003;41724;51.176;-0.708;2022-10-19T05:12:08;7;6;
55518;PMS5003;41724;51.176;-0.708;2022-10-19T05:14:35;4;4;
55518;PMS5003;41724;51.176;-0.708;2022-10-19T05:17:03;7;4;
55518;PMS5003;41724;51.176;-0.708;2022-10-19T05:19:30;5;5;
55518;PMS5003;41724;51.176;-0.708;2022-10-19T05:21:57;8;7;
55518;PMS5003;41724;51.176;-0.708;2022-10-19T05:24:24;9;6;
55518;PMS5003;41724;51.176;-0.708;2022-10-19T05:26:52;9;6;
55518;PMS5003;41724;51.176;-0.708;2022-10-19T05:29:19;9;6;
55518;PMS5003;41724;51.176;-0.708;2022-10-19T05:31:46;4;4;
55518;PMS5003;41724;51.176;-0.708;2022-10-19T05:34:13;5;4;
55518;PMS5003;41724;51.176;-0.708;2022-10-19T05:36:40;5;5;
55518;PMS5003;41724;51.176;-0.708;2022-10-19T05:39:08;10;5;
55518;PMS5003;41724;51.176;-0.708;2022-10-19T05:41:38;6;6;
55518;PMS5003;41724;51.176;-0.708;2022-10-19T05:44:09;9;8;
55518;PMS5003;41724;51.176;-0.708;2022-10-19T05:46:40;7;5;
55518;PMS5003;41724;51.176;-0.708;2022-10-19T05:49:08;6;5;
55518;PMS5003;41724;51.176;-0.708;2022-10-19T05:51:37;7;6;
55518;PMS5003;41724;51.176;-0.708;2022-10-19T05:54:04;6;6;
55518;PMS5003;41724;51.176;-0.708;2022-10-19T05:56:32;5;4;
55518;PMS5003;41724;51.176;-0.708;2022-10-19T05:59:00;7;6;
55518;PMS5003;41724;51.176;-0.708;2022-10-19T06:01:31;4;4;
55518;PMS5003;41724;51.176;-0.708;2022-10-19T06:03:59;6;5;
55518;PMS5003;41724;51.176;-0.708;2022-10-19T06:06:27;8;6;
55518;PMS5003;41724;51.176;-0.708;2022-10-19T06:08:55;8;7;
55518;PMS5003;41724;51.176;-0.708;2022-10-19T06:11:24;8;5;
55518;PMS5003;41724;51.176;-0.708;2022-10-19T06:13:53;6;6;
55518;PMS5003;41724;51.176;-0.708;2022-10-19T06:16:22;6;6;
55518;PMS5003;41724;51.176;-0.708;2022-10-19T06:18:51;6;6;
55518;PMS5003;41724;51.176;-0.708;2022-10-19T06:21:19;9;8;
55518;PMS5003;41724;51.176;-0.708;2022-10-19T06:23:49;10;9;
55518;PMS5003;41724;51.176;-0.708;2022-10-19T06:26:17;6;6;
55518;PMS5003;41724;51.176;-0.708;2022-10-19T06:28:44;8;7;
55518;PMS5003;41724;51.176;-0.708;2022-10-19T06:31:12;7;7;
55518;PMS5003;41724;51.176;-0.708;2022-10-19T06:33:40;6;6;
55518;PMS5003;41724;51.176;-0.708;2022-10-19T06:36:12;9;6;
55518;PMS5003;41724;51.176;-0.708;2022-10-19T06:38:40;8;8;
55518;PMS5003;41724;51.176;-0.708;2022-10-19T06:41:08;9;8;
55518;PMS5003;41724;51.176;-0.708;2022-10-19T06:43:37;7;7;
55518;PMS5003;41724;51.176;-0.708;2022-10-19T06:46:04;6;6;
55518;PMS5003;41724;51.176;-0.708;2022-10-19T06:48:32;10;8;
55518;PMS5003;41724;51.176;-0.708;2022-10-19T06:51:00;10;9;
55518;PMS5003;41724;51.176;-0.708;2022-10-19T06:53:29;7;7;
55518;PMS5003;41724;51.176;-0.708;2022-10-19T06:55:56;8;6;
55518;PMS5003;41724;51.176;-0.708;2022-10-19T06:58:24;6;6;
55518;PMS5003;41724;51.176;-0.708;2022-10-19T07:00:53;11;7;
55518;PMS5003;41724;51.176;-0.708;2022-10-19T07:03:21;8;7;
55518;PMS5003;41724;51.176;-0.708;2022-10-19T07:05:52;6;6;
55518;PMS5003;41724;51.176;-0.708;2022-10-19T07:08:20;7;7;
55518;PMS5003;41724;51.176;-0.708;2022-10-19T07:10:48;7;7;
55518;PMS5003;41724;51.176;-0.708;2022-10-19T07:13:17;6;5;
55518;PMS5003;41724;51.176;-0.708;2022-10-19T07:15:44;8;8;
55518;PMS5003;41724;51.176;-0.708;2022-10-19T07:18:11;11;7;
55518;PMS5003;41724;51.176;-0.708;2022-10-19T07:20:39;9;8;
55518;PMS5003;41724;51.176;-0.708;2022-10-19T07:23:06;6;6;
55518;PMS5003;41724;51.176;-0.708;2022-10-19T07:25:34;7;7;
55518;PMS5003;41724;51.176;-0.708;2022-10-19T07:28:02;7;5;
55518;PMS5003;41724;51.176;-0.708;2022-10-19T07:30:29;7;6;
55518;PMS5003;41724;51.176;-0.708;2022-10-19T07:32:56;8;6;
55518;PMS5003;41724;51.176;-0.708;2022-10-19T07:35:23;7;7;
55518;PMS5003;41724;51.176;-0.708;2022-10-19T07:37:50;5;5;
55518;PMS5003;41724;51.176;-0.708;2022-10-19T07:40:18;6;5;
55518;PMS5003;41724;51.176;-0.708;2022-10-19T07:42:45;5;5;
55518;PMS5003;41724;51.176;-0.708;2022-10-19T07:45:12;8;8;
55518;PMS5003;41724;51.176;-0.708;2022-10-19T07:47:39;7;6;
55518;PMS5003;41724;51.176;-0.708;2022-10-19T07:50:06;7;6;
55518;PMS5003;41724;51.176;-0.708;2022-10-19T07:52:34;9;7;
55518;PMS5003;41724;51.176;-0.708;2022-10-19T07:55:02;9;7;
55518;PMS5003;41724;51.176;-0.708;2022-10-19T07:57:29;8;7;
55518;PMS5003;41724;51.176;-0.708;2022-10-19T07:59:56;6;6;
55518;PMS5003;41724;51.176;-0.708;2022-10-19T08:02:24;5;5;
55518;PMS5003;41724;51.176;-0.708;2022-10-19T08:04:51;6;6;
55518;PMS5003;41724;51.176;-0.708;2022-10-19T08:07:18;8;5;
55518;PMS5003;41724;51.176;-0.708;2022-10-19T08:09:45;10;9;
55518;PMS5003;41724;51.176;-0.708;2022-10-19T08:12:12;8;6;
55518;PMS5003;41724;51.176;-0.708;2022-10-19T08:14:39;6;4;
55518;PMS5003;41724;51.176;-0.708;2022-10-19T08:17:09;9;6;
55518;PMS5003;41724;51.176;-0.708;2022-10-19T08:19:36;9;6;
55518;PMS5003;41724;51.176;-0.708;2022-10-19T08:22:03;8;8;
55518;PMS5003;41724;51.176;-0.708;2022-10-19T08:24:30;7;6;
55518;PMS5003;41724;51.176;-0.708;2022-10-19T08:26:57;6;5;
55518;PMS5003;41724;51.176;-0.708;2022-10-19T08:29:24;5;5;
55518;PMS5003;41724;51.176;-0.708;2022-10-19T08:31:51;6;6;
55518;PMS5003;41724;51.176;-0.708;2022-10-19T08:34:18;10;9;
55518;PMS5003;41724;51.176;-0.708;2022-10-19T08:36:46;6;6;
55518;PMS5003;41724;51.176;-0.708;2022-10-19T08:39:13;8;6;
55518;PMS5003;41724;51.176;-0.708;2022-10-19T08:41:47;8;7;
55518;PMS5003;41724;51.176;-0.708;2022-10-19T08:44:29;9;6;
55518;PMS5003;41724;51.176;-0.708;2022-10-19T08:47:27;9;6;
55518;PMS5003;41724;51.176;-0.708;2022-10-19T08:50:20;9;7;
55518;PMS5003;41724;51.176;-0.708;2022-10-19T08:52:50;7;7;
55518;PMS5003;41724;51.176;-0.708;2022-10-19T08:55:27;10;10;
55518;PMS5003;41724;51.176;-0.708;2022-10-19T08:58:09;8;7;
55518;PMS5003;41724;51.176;-0.708;2022-10-19T09:00:48;8;8;
55518;PMS5003;41724;51.176;-0.708;2022-10-19T09:03:22;8;8;
55518;PMS5003;41724;51.176;-0.708;2022-10-19T09:05:56;13;11;
55518;PMS5003;41724;51.176;-0.708;2022-10-19T09:08:33;11;9;
55518;PMS5003;41724;51.176;-0.708;2022-10-19T09:11:04;9;9;
55518;PMS5003;41724;51.176;-0.708;2022-10-19T09:13:35;8;7;
55518;PMS5003;41724;51.176;-0.708;2022-10-19T09:16:07;9;8;
55518;PMS5003;41724;51.176;-0.708;2022-10-19T09:18:38;10;8;
55518;PMS5003;41724;51.176;-0.708;2022-10-19T09:21:08;9;8;
55518;PMS5003;41724;51.176;-0.708;2022-10-19T09:23:42;10;9;
55518;PMS5003;41724;51.176;-0.708;2022-10-19T09:26:19;10;8;
55518;PMS5003;41724;51.176;-0.708;2022-10-19T09:28:49;10;8;
55518;PMS5003;41724;51.176;-0.708;2022-10-19T09:31:23;11;8;
55518;PMS5003;41724;51.176;-0.708;2022-10-19T09:33:54;8;8;
55518;PMS5003;41724;51.176;-0.708;2022-10-19T09:36:24;7;7;
55518;PMS5003;41724;51.176;-0.708;2022-10-19T09:39:01;9;7;
55518;PMS5003;41724;51.176;-0.708;2022-10-19T09:41:29;10;7;
55518;PMS5003;41724;51.176;-0.708;2022-10-19T09:43:57;8;7;
55518;PMS5003;41724;51.176;-0.708;2022-10-19T09:46:26;6;6;
55518;PMS5003;41724;51.176;-0.708;2022-10-19T09:49:02;12;6;
55518;PMS5003;41724;51.176;-0.708;2022-10-19T09:51:39;8;6;
55518;PMS5003;41724;51.176;-0.708;2022-10-19T09:54:31;5;5;
55518;PMS5003;41724;51.176;-0.708;2022-10-19T09:57:00;5;5;
55518;PMS5003;41724;51.176;-0.708;2022-10-19T09:59:30;6;6;
55518;PMS5003;41724;51.176;-0.708;2022-10-19T10:02:05;6;6;
55518;PMS5003;41724;51.176;-0.708;2022-10-19T10:04:45;6;6;
55518;PMS5003;41724;51.176;-0.708;2022-10-19T10:07:14;10;8;
55518;PMS5003;41724;51.176;-0.708;2022-10-19T10:09:43;6;5;
55518;PMS5003;41724;51.176;-0.708;2022-10-19T10:12:12;7;7;
55518;PMS5003;41724;51.176;-0.708;2022-10-19T10:14:41;9;6;
55518;PMS5003;41724;51.176;-0.708;2022-10-19T10:17:12;8;7;
55518;PMS5003;41724;51.176;-0.708;2022-10-19T10:19:51;7;7;
55518;PMS5003;41724;51.176;-0.708;2022-10-19T10:22:30;6;6;
55518;PMS5003;41724;51.176;-0.708;2022-10-19T10:24:58;6;6;
55518;PMS5003;41724;51.176;-0.708;2022-10-19T10:27:29;5;5;
55518;PMS5003;41724;51.176;-0.708;2022-10-19T10:29:57;7;4;
55518;PMS5003;41724;51.176;-0.708;2022-10-19T10:32:25;8;7;
55518;PMS5003;41724;51.176;-0.708;2022-10-19T10:34:57;6;6;
55518;PMS5003;41724;51.176;-0.708;2022-10-19T10:37:28;10;8;
55518;PMS5003;41724;51.176;-0.708;2022-10-19T10:40:03;8;8;
55518;PMS5003;41724;51.176;-0.708;2022-10-19T10:42:33;10;6;
55518;PMS5003;41724;51.176;-0.708;2022-10-19T10:45:14;8;7;
55518;PMS5003;41724;51.176;-0.708;2022-10-19T10:47:44;7;7;
55518;PMS5003;41724;51.176;-0.708;2022-10-19T10:50:15;5;4;
55518;PMS5003;41724;51.176;-0.708;2022-10-19T10:52:55;7;7;
55518;PMS5003;41724;51.176;-0.708;2022-10-19T10:55:25;9;5;
55518;PMS5003;41724;51.176;-0.708;2022-10-19T10:57:56;12;8;
55518;PMS5003;41724;51.176;-0.708;2022-10-19T11:00:32;7;7;
55518;PMS5003;41724;51.176;-0.708;2022-10-19T11:03:00;10;7;
55518;PMS5003;41724;51.176;-0.708;2022-10-19T11:05:39;8;6;
55518;PMS5003;41724;51.176;-0.708;2022-10-19T11:08:11;6;6;
55518;PMS5003;41724;51.176;-0.708;2022-10-19T11:10:45;5;5;
55518;PMS5003;41724;51.176;-0.708;2022-10-19T11:13:20;6;6;
55518;PMS5003;41724;51.176;-0.708;2022-10-19T11:15:54;5;5;
55518;PMS5003;41724;51.176;-0.708;2022-10-19T11:18:26;8;6;
55518;PMS5003;41724;51.176;-0.708;2022-10-19T11:21:03;8;6;
55518;PMS5003;41724;51.176;-0.708;2022-10-19T11:23:41;6;5;
55518;PMS5003;41724;51.176;-0.708;2022-10-19T11:26:42;12;7;
55518;PMS5003;41724;51.176;-0.708;2022-10-19T11:29:26;7;7;
55518;PMS5003;41724;51.176;-0.708;2022-10-19T11:32:15;7;7;
55518;PMS5003;41724;51.176;-0.708;2022-10-19T11:34:56;8;6;
55518;PMS5003;41724;51.176;-0.708;2022-10-19T11:37:41;5;5;
55518;PMS5003;41724;51.176;-0.708;2022-10-19T11:40:21;8;8;
55518;PMS5003;41724;51.176;-0.708;2022-10-19T11:43:00;6;5;
55518;PMS5003;41724;51.176;-0.708;2022-10-19T11:45:33;6;6;
55518;PMS5003;41724;51.176;-0.708;2022-10-19T11:48:30;4;4;
55518;PMS5003;41724;51.176;-0.708;2022-10-19T11:51:14;7;4;
55518;PMS5003;41724;51.176;-0.708;2022-10-19T11:53:50;6;5;
55518;PMS5003;41724;51.176;-0.708;2022-10-19T11:56:28;6;6;
55518;PMS5003;41724;51.176;-0.708;2022-10-19T11:59:02;6;5;
55518;PMS5003;41724;51.176;-0.708;2022-10-19T12:01:46;7;6;
55518;PMS5003;41724;51.176;-0.708;2022-10-19T12:04:32;6;6;
55518;PMS5003;41724;51.176;-0.708;2022-10-19T12:07:16;7;6;
55518;PMS5003;41724;51.176;-0.708;2022-10-19T12:10:00;6;6;
55518;PMS5003;41724;51.176;-0.708;2022-10-19T12:12:40;8;7;
55518;PMS5003;41724;51.176;-0.708;2022-10-19T12:15:17;6;6;
55518;PMS5003;41724;51.176;-0.708;2022-10-19T12:17:50;7;6;
55518;PMS5003;41724;51.176;-0.708;2022-10-19T12:20:23;5;4;
55518;PMS5003;41724;51.176;-0.708;2022-10-19T12:22:56;5;5;
55518;PMS5003;41724;51.176;-0.708;2022-10-19T12:25:25;5;5;
55518;PMS5003;41724;51.176;-0.708;2022-10-19T12:27:52;6;5;
55518;PMS5003;41724;51.176;-0.708;2022-10-19T12:30:21;3;3;
55518;PMS5003;41724;51.176;-0.708;2022-10-19T12:32:54;5;5;
55518;PMS5003;41724;51.176;-0.708;2022-10-19T12:35:33;4;4;
55518;PMS5003;41724;51.176;-0.708;2022-10-19T12:38:16;6;4;
55518;PMS5003;41724;51.176;-0.708;2022-10-19T12:40:51;4;4;
55518;PMS5003;41724;51.176;-0.708;2022-10-19T12:43:27;5;5;
55518;PMS5003;41724;51.176;-0.708;2022-10-19T12:46:07;8;6;
55518;PMS5003;41724;51.176;-0.708;2022-10-19T12:48:44;5;5;
55518;PMS5003;41724;51.176;-0.708;2022-10-19T12:51:12;3;3;
55518;PMS5003;41724;51.176;-0.708;2022-10-19T12:53:43;8;6;
55518;PMS5003;41724;51.176;-0.708;2022-10-19T12:56:15;4;4;
55518;PMS5003;41724;51.176;-0.708;2022-10-19T12:58:48;5;5;
55518;PMS5003;41724;51.176;-0.708;2022-10-19T13:01:20;6;5;
55518;PMS5003;41724;51.176;-0.708;2022-10-19T13:03:51;6;5;
55518;PMS5003;41724;51.176;-0.708;2022-10-19T13:06:35;5;5;
55518;PMS5003;41724;51.176;-0.708;2022-10-19T13:09:06;3;3;
55518;PMS5003;41724;51.176;-0.708;2022-10-19T13:11:35;9;9;
55518;PMS5003;41724;51.176;-0.708;2022-10-19T13:14:51;6;5;
55518;PMS5003;41724;51.176;-0.708;2022-10-19T13:17:37;5;5;
55518;PMS5003;41724;51.176;-0.708;2022-10-19T13:21:09;8;8;
55518;PMS5003;41724;51.176;-0.708;2022-10-19T13:23:38;9;7;
55518;PMS5003;41724;51.176;-0.708;2022-10-19T13:26:22;6;6;
55518;PMS5003;41724;51.176;-0.708;2022-10-19T13:28:56;5;5;
55518;PMS5003;41724;51.176;-0.708;2022-10-19T13:31:25;5;5;
55518;PMS5003;41724;51.176;-0.708;2022-10-19T13:33:54;8;8;
55518;PMS5003;41724;51.176;-0.708;2022-10-19T13:36:21;10;7;
55518;PMS5003;41724;51.176;-0.708;2022-10-19T13:39:24;7;7;
55518;PMS5003;41724;51.176;-0.708;2022-10-19T13:41:53;9;6;
55518;PMS5003;41724;51.176;-0.708;2022-10-19T13:44:22;7;5;
55518;PMS5003;41724;51.176;-0.708;2022-10-19T13:46:59;6;6;
55518;PMS5003;41724;51.176;-0.708;2022-10-19T13:49:53;7;5;
55518;PMS5003;41724;51.176;-0.708;2022-10-19T13:52:35;8;8;
55518;PMS5003;41724;51.176;-0.708;2022-10-19T13:55:51;5;5;
55518;PMS5003;41724;51.176;-0.708;2022-10-19T13:59:37;8;5;
55518;PMS5003;41724;51.176;-0.708;2022-10-19T14:02:30;7;7;
55518;PMS5003;41724;51.176;-0.708;2022-10-19T14:05:13;9;7;
55518;PMS5003;41724;51.176;-0.708;2022-10-19T14:08:01;11;9;
55518;PMS5003;41724;51.176;-0.708;2022-10-19T14:10:37;9;5;
55518;PMS5003;41724;51.176;-0.708;2022-10-19T14:13:04;5;5;
55518;PMS5003;41724;51.176;-0.708;2022-10-19T14:15:41;5;5;
55518;PMS5003;41724;51.176;-0.708;2022-10-19T14:18:20;7;6;
55518;PMS5003;41724;51.176;-0.708;2022-10-19T14:20:55;4;4;
55518;PMS5003;41724;51.176;-0.708;2022-10-19T14:23:24;4;4;
55518;PMS5003;41724;51.176;-0.708;2022-10-19T14:25:53;6;6;
55518;PMS5003;41724;51.176;-0.708;2022-10-19T14:28:23;5;3;
55518;PMS5003;41724;51.176;-0.708;2022-10-19T14:30:54;6;5;
55518;PMS5003;41724;51.176;-0.708;2022-10-19T14:33:22;5;4;
55518;PMS5003;41724;51.176;-0.708;2022-10-19T14:35:50;4;4;
55518;PMS5003;41724;51.176;-0.708;2022-10-19T14:38:19;6;4;
55518;PMS5003;41724;51.176;-0.708;2022-10-19T14:40:51;4;4;
55518;PMS5003;41724;51.176;-0.708;2022-10-19T14:43:19;2;2;
55518;PMS5003;41724;51.176;-0.708;2022-10-19T14:46:08;7;7;
55518;PMS5003;41724;51.176;-0.708;2022-10-19T14:48:38;4;4;
55518;PMS5003;41724;51.176;-0.708;2022-10-19T14:51:09;5;5;
55518;PMS5003;41724;51.176;-0.708;2022-10-19T14:53:46;5;5;
55518;PMS5003;41724;51.176;-0.708;2022-10-19T14:56:17;9;6;
55518;PMS5003;41724;51.176;-0.708;2022-10-19T14:58:55;6;5;
55518;PMS5003;41724;51.176;-0.708;2022-10-19T15:01:25;7;7;
55518;PMS5003;41724;51.176;-0.708;2022-10-19T15:03:52;10;10;
55518;PMS5003;41724;51.176;-0.708;2022-10-19T15:06:20;10;8;
55518;PMS5003;41724;51.176;-0.708;2022-10-19T15:08:52;7;7;
55518;PMS5003;41724;51.176;-0.708;2022-10-19T15:11:23;6;6;
55518;PMS5003;41724;51.176;-0.708;2022-10-19T15:13:55;8;8;
55518;PMS5003;41724;51.176;-0.708;2022-10-19T15:16:28;10;8;
55518;PMS5003;41724;51.176;-0.708;2022-10-19T15:19:01;7;6;
55518;PMS5003;41724;51.176;-0.708;2022-10-19T15:21:29;8;8;
55518;PMS5003;41724;51.176;-0.708;2022-10-19T15:24:07;7;6;
55518;PMS5003;41724;51.176;-0.708;2022-10-19T15:26:49;7;7;
55518;PMS5003;41724;51.176;-0.708;2022-10-19T15:29:19;7;5;
55518;PMS5003;41724;51.176;-0.708;2022-10-19T15:31:48;8;7;
55518;PMS5003;41724;51.176;-0.708;2022-10-19T15:34:19;6;6;
55518;PMS5003;41724;51.176;-0.708;2022-10-19T15:36:53;9;6;
55518;PMS5003;41724;51.176;-0.708;2022-10-19T15:39:21;6;6;
55518;PMS5003;41724;51.176;-0.708;2022-10-19T15:41:52;10;9;
55518;PMS5003;41724;51.176;-0.708;2022-10-19T15:44:39;5;5;
55518;PMS5003;41724;51.176;-0.708;2022-10-19T15:47:16;10;8;
55518;PMS5003;41724;51.176;-0.708;2022-10-19T15:49:56;6;6;
55518;PMS5003;41724;51.176;-0.708;2022-10-19T15:52:25;6;6;
55518;PMS5003;41724;51.176;-0.708;2022-10-19T15:54:55;8;7;
55518;PMS5003;41724;51.176;-0.708;2022-10-19T15:57:25;8;8;
55518;PMS5003;41724;51.176;-0.708;2022-10-19T15:59:54;9;8;
55518;PMS5003;41724;51.176;-0.708;2022-10-19T16:02:22;6;6;
55518;PMS5003;41724;51.176;-0.708;2022-10-19T16:04:49;9;6;
55518;PMS5003;41724;51.176;-0.708;2022-10-19T16:07:17;8;8;
55518;PMS5003;41724;51.176;-0.708;2022-10-19T16:09:49;10;9;
55518;PMS5003;41724;51.176;-0.708;2022-10-19T16:12:17;11;8;
55518;PMS5003;41724;51.176;-0.708;2022-10-19T16:14:44;7;7;
55518;PMS5003;41724;51.176;-0.708;2022-10-19T16:17:11;9;7;
55518;PMS5003;41724;51.176;-0.708;2022-10-19T16:19:39;9;7;
55518;PMS5003;41724;51.176;-0.708;2022-10-19T16:22:07;11;9;
55518;PMS5003;41724;51.176;-0.708;2022-10-19T16:24:33;8;8;
55518;PMS5003;41724;51.176;-0.708;2022-10-19T16:27:01;10;9;
55518;PMS5003;41724;51.176;-0.708;2022-10-19T16:29:28;8;8;
55518;PMS5003;41724;51.176;-0.708;2022-10-19T16:31:55;12;10;
55518;PMS5003;41724;51.176;-0.708;2022-10-19T16:34:23;12;9;
55518;PMS5003;41724;51.176;-0.708;2022-10-19T16:36:49;11;10;
55518;PMS5003;41724;51.176;-0.708;2022-10-19T16:39:17;11;11;
55518;PMS5003;41724;51.176;-0.708;2022-10-19T16:41:44;14;11;
55518;PMS5003;41724;51.176;-0.708;2022-10-19T16:44:11;12;12;
55518;PMS5003;41724;51.176;-0.708;2022-10-19T16:46:38;11;11;
55518;PMS5003;41724;51.176;-0.708;2022-10-19T16:49:05;8;8;
55518;PMS5003;41724;51.176;-0.708;2022-10-19T16:51:33;13;10;
55518;PMS5003;41724;51.176;-0.708;2022-10-19T16:54:02;14;12;
55518;PMS5003;41724;51.176;-0.708;2022-10-19T16:56:32;10;9;
55518;PMS5003;41724;51.176;-0.708;2022-10-19T16:59:02;11;11;
55518;PMS5003;41724;51.176;-0.708;2022-10-19T17:01:31;15;11;
55518;PMS5003;41724;51.176;-0.708;2022-10-19T17:03:59;11;11;